Terminal Aerodrome Forecast
Issued by NWS

Home | Current Version | Previous Version | Text Only | Print | Product List | Glossary On
Versions: 1 2 3 4 5 6 7 8 9 10 11 12 13
000
FTUS42 KTBW 260520
TAFPGD
TAF
KPGD 260520Z 2606/2706 06006KT P6SM SKC
     FM261500 08010KT P6SM FEW040
     FM262000 07010G15KT P6SM SCT060
     FM270100 09009KT P6SM FEW250=

USA.gov is the U.S. government's official web portal to all federal, state and local government web resources and services.